sensor_id;sensor_type;location;lat;lon;timestamp;pressure;altitude;pressure_sealevel;temperature;humidity
77153;BME280;66124;51.146;17.072;2023-07-20T00:01:34;99557.63;;;16.83;72.59
77153;BME280;66124;51.146;17.072;2023-07-20T00:04:04;99560.64;;;16.81;72.64
77153;BME280;66124;51.146;17.072;2023-07-20T00:06:33;99566.04;;;16.80;72.87
77153;BME280;66124;51.146;17.072;2023-07-20T00:09:02;99563.48;;;16.78;73.38
77153;BME280;66124;51.146;17.072;2023-07-20T00:11:34;99561.47;;;16.75;73.33
77153;BME280;66124;51.146;17.072;2023-07-20T00:14:04;99564.42;;;16.72;73.49
77153;BME280;66124;51.146;17.072;2023-07-20T00:16:34;99570.95;;;16.67;73.93
77153;BME280;66124;51.146;17.072;2023-07-20T00:19:03;99576.11;;;16.63;74.12
77153;BME280;66124;51.146;17.072;2023-07-20T00:21:33;99579.63;;;16.59;74.22
77153;BME280;66124;51.146;17.072;2023-07-20T00:24:03;99585.64;;;16.57;74.72
77153;BME280;66124;51.146;17.072;2023-07-20T00:26:32;99593.98;;;16.54;75.15
77153;BME280;66124;51.146;17.072;2023-07-20T00:29:02;99589.39;;;16.51;75.36
77153;BME280;66124;51.146;17.072;2023-07-20T00:31:31;99584.92;;;16.48;75.57
77153;BME280;66124;51.146;17.072;2023-07-20T00:34:00;99583.80;;;16.46;76.01
77153;BME280;66124;51.146;17.072;2023-07-20T00:36:30;99586.56;;;16.43;76.27
77153;BME280;66124;51.146;17.072;2023-07-20T00:38:59;99585.95;;;16.40;76.34
77153;BME280;66124;51.146;17.072;2023-07-20T00:41:28;99588.79;;;16.38;76.68
77153;BME280;66124;51.146;17.072;2023-07-20T00:43:58;99589.36;;;16.35;77.09
77153;BME280;66124;51.146;17.072;2023-07-20T00:48:20;99589.84;;;16.32;77.31
77153;BME280;66124;51.146;17.072;2023-07-20T00:50:49;99588.77;;;16.30;77.31
77153;BME280;66124;51.146;17.072;2023-07-20T00:54:19;99574.02;;;16.35;77.53
77153;BME280;66124;51.146;17.072;2023-07-20T01:01:09;99561.69;;;16.44;77.29
77153;BME280;66124;51.146;17.072;2023-07-20T01:03:39;99562.84;;;16.46;77.46
77153;BME280;66124;51.146;17.072;2023-07-20T01:06:26;99566.13;;;16.48;77.48
77153;BME280;66124;51.146;17.072;2023-07-20T01:09:04;99569.09;;;16.47;77.42
77153;BME280;66124;51.146;17.072;2023-07-20T01:11:42;99575.20;;;16.47;77.53
77153;BME280;66124;51.146;17.072;2023-07-20T01:14:13;99579.71;;;16.46;77.87
77153;BME280;66124;51.146;17.072;2023-07-20T01:16:43;99574.39;;;16.46;77.92
77153;BME280;66124;51.146;17.072;2023-07-20T01:19:13;99572.19;;;16.45;77.99
77153;BME280;66124;51.146;17.072;2023-07-20T01:21:48;99569.88;;;16.44;78.08
77153;BME280;66124;51.146;17.072;2023-07-20T01:24:48;99567.59;;;16.42;78.11
77153;BME280;66124;51.146;17.072;2023-07-20T01:27:53;99565.35;;;16.39;78.21
77153;BME280;66124;51.146;17.072;2023-07-20T01:30:45;99567.96;;;16.39;78.24
77153;BME280;66124;51.146;17.072;2023-07-20T01:33:17;99569.54;;;16.41;78.28
77153;BME280;66124;51.146;17.072;2023-07-20T01:35:52;99562.52;;;16.44;78.45
77153;BME280;66124;51.146;17.072;2023-07-20T01:38:25;99558.16;;;16.46;78.44
77153;BME280;66124;51.146;17.072;2023-07-20T01:40:59;99559.71;;;16.47;78.40
77153;BME280;66124;51.146;17.072;2023-07-20T01:43:28;99557.27;;;16.47;78.22
77153;BME280;66124;51.146;17.072;2023-07-20T01:45:58;99558.02;;;16.46;78.21
77153;BME280;66124;51.146;17.072;2023-07-20T01:48:27;99566.58;;;16.46;78.19
77153;BME280;66124;51.146;17.072;2023-07-20T01:50:56;99567.80;;;16.47;78.39
77153;BME280;66124;51.146;17.072;2023-07-20T01:53:26;99569.13;;;16.48;78.15
77153;BME280;66124;51.146;17.072;2023-07-20T01:55:56;99568.10;;;16.48;78.31
77153;BME280;66124;51.146;17.072;2023-07-20T01:58:25;99567.40;;;16.48;78.32
77153;BME280;66124;51.146;17.072;2023-07-20T02:02:35;99564.20;;;16.51;78.41
77153;BME280;66124;51.146;17.072;2023-07-20T02:05:05;99560.87;;;16.51;78.21
77153;BME280;66124;51.146;17.072;2023-07-20T02:07:34;99561.36;;;16.50;78.15
77153;BME280;66124;51.146;17.072;2023-07-20T02:10:04;99563.28;;;16.49;78.41
77153;BME280;66124;51.146;17.072;2023-07-20T02:12:33;99566.05;;;16.48;78.10
77153;BME280;66124;51.146;17.072;2023-07-20T02:15:04;99568.83;;;16.49;78.12
77153;BME280;66124;51.146;17.072;2023-07-20T02:17:33;99565.38;;;16.49;78.31
77153;BME280;66124;51.146;17.072;2023-07-20T02:20:04;99566.48;;;16.49;78.28
77153;BME280;66124;51.146;17.072;2023-07-20T02:22:33;99568.89;;;16.47;78.12
77153;BME280;66124;51.146;17.072;2023-07-20T02:25:03;99571.02;;;16.43;78.20
77153;BME280;66124;51.146;17.072;2023-07-20T02:27:33;99569.11;;;16.39;78.16
77153;BME280;66124;51.146;17.072;2023-07-20T02:30:03;99574.09;;;16.35;78.28
77153;BME280;66124;51.146;17.072;2023-07-20T02:32:34;99569.11;;;16.33;78.26
77153;BME280;66124;51.146;17.072;2023-07-20T02:35:04;99567.98;;;16.31;78.55
77153;BME280;66124;51.146;17.072;2023-07-20T02:37:33;99564.89;;;16.28;78.57
77153;BME280;66124;51.146;17.072;2023-07-20T02:40:03;99567.42;;;16.27;78.64
77153;BME280;66124;51.146;17.072;2023-07-20T02:42:33;99573.48;;;16.27;78.64
77153;BME280;66124;51.146;17.072;2023-07-20T02:45:03;99573.63;;;16.27;78.55
77153;BME280;66124;51.146;17.072;2023-07-20T02:47:32;99579.88;;;16.27;78.68
77153;BME280;66124;51.146;17.072;2023-07-20T02:52:02;99576.59;;;16.24;78.66
77153;BME280;66124;51.146;17.072;2023-07-20T02:54:31;99577.13;;;16.19;78.85
77153;BME280;66124;51.146;17.072;2023-07-20T02:57:00;99578.64;;;16.18;78.83
77153;BME280;66124;51.146;17.072;2023-07-20T02:59:30;99575.84;;;16.16;78.93
77153;BME280;66124;51.146;17.072;2023-07-20T03:01:59;99574.98;;;16.14;79.02
77153;BME280;66124;51.146;17.072;2023-07-20T03:04:30;99571.45;;;16.07;78.97
77153;BME280;66124;51.146;17.072;2023-07-20T03:06:59;99575.45;;;16.09;78.95
77153;BME280;66124;51.146;17.072;2023-07-20T03:09:29;99571.99;;;16.08;79.13
77153;BME280;66124;51.146;17.072;2023-07-20T03:11:58;99575.14;;;16.08;78.91
77153;BME280;66124;51.146;17.072;2023-07-20T03:14:27;99581.57;;;16.08;79.07
77153;BME280;66124;51.146;17.072;2023-07-20T03:16:57;99582.12;;;16.07;79.13
77153;BME280;66124;51.146;17.072;2023-07-20T03:19:26;99582.77;;;16.05;79.15
77153;BME280;66124;51.146;17.072;2023-07-20T03:21:55;99579.91;;;16.04;79.13
77153;BME280;66124;51.146;17.072;2023-07-20T03:24:25;99581.24;;;16.01;79.32
77153;BME280;66124;51.146;17.072;2023-07-20T03:26:54;99584.39;;;15.99;79.32
77153;BME280;66124;51.146;17.072;2023-07-20T03:29:24;99579.36;;;15.96;79.41
77153;BME280;66124;51.146;17.072;2023-07-20T03:31:53;99581.98;;;15.94;79.27
77153;BME280;66124;51.146;17.072;2023-07-20T03:34:22;99582.48;;;15.93;79.42
77153;BME280;66124;51.146;17.072;2023-07-20T03:36:52;99583.19;;;15.92;79.52
77153;BME280;66124;51.146;17.072;2023-07-20T03:39:21;99586.54;;;15.89;79.44
77153;BME280;66124;51.146;17.072;2023-07-20T03:41:53;99589.53;;;15.87;79.54
77153;BME280;66124;51.146;17.072;2023-07-20T03:44:23;99586.89;;;15.86;79.42
77153;BME280;66124;51.146;17.072;2023-07-20T03:46:53;99591.77;;;15.86;79.48
77153;BME280;66124;51.146;17.072;2023-07-20T03:49:22;99590.81;;;15.83;79.81
77153;BME280;66124;51.146;17.072;2023-07-20T03:51:51;99584.69;;;15.83;79.78
77153;BME280;66124;51.146;17.072;2023-07-20T03:54:21;99583.23;;;15.82;79.59
77153;BME280;66124;51.146;17.072;2023-07-20T03:56:50;99585.21;;;15.81;79.98
77153;BME280;66124;51.146;17.072;2023-07-20T03:59:19;99591.40;;;15.80;79.93
77153;BME280;66124;51.146;17.072;2023-07-20T04:01:47;99586.73;;;15.80;79.71
77153;BME280;66124;51.146;17.072;2023-07-20T04:04:15;99585.79;;;15.81;79.96
77153;BME280;66124;51.146;17.072;2023-07-20T04:14:22;99578.92;;;16.00;79.86
77153;BME280;66124;51.146;17.072;2023-07-20T04:16:53;99588.47;;;16.05;79.82
77153;BME280;66124;51.146;17.072;2023-07-20T04:19:23;99592.60;;;16.14;79.80
77153;BME280;66124;51.146;17.072;2023-07-20T04:21:52;99591.86;;;16.25;79.75
77153;BME280;66124;51.146;17.072;2023-07-20T04:24:21;99596.10;;;16.34;79.69
77153;BME280;66124;51.146;17.072;2023-07-20T04:26:54;99600.23;;;16.42;79.61
77153;BME280;66124;51.146;17.072;2023-07-20T04:29:23;99596.53;;;16.48;79.62
77153;BME280;66124;51.146;17.072;2023-07-20T04:31:52;99599.56;;;16.53;79.45
77153;BME280;66124;51.146;17.072;2023-07-20T04:34:22;99604.76;;;16.60;79.24
77153;BME280;66124;51.146;17.072;2023-07-20T04:36:51;99612.09;;;16.66;79.36
77153;BME280;66124;51.146;17.072;2023-07-20T04:39:20;99614.58;;;16.71;79.41
77153;BME280;66124;51.146;17.072;2023-07-20T04:41:50;99612.70;;;16.75;79.08
77153;BME280;66124;51.146;17.072;2023-07-20T04:44:19;99612.11;;;16.80;79.22
77153;BME280;66124;51.146;17.072;2023-07-20T04:46:48;99616.06;;;16.86;79.29
77153;BME280;66124;51.146;17.072;2023-07-20T04:49:18;99626.48;;;16.92;79.03
77153;BME280;66124;51.146;17.072;2023-07-20T04:51:48;99630.73;;;16.96;79.14
77153;BME280;66124;51.146;17.072;2023-07-20T04:54:17;99632.86;;;17.01;78.99
77153;BME280;66124;51.146;17.072;2023-07-20T04:56:46;99626.91;;;17.03;78.83
77153;BME280;66124;51.146;17.072;2023-07-20T04:59:16;99624.73;;;17.06;78.89
77153;BME280;66124;51.146;17.072;2023-07-20T05:01:45;99630.00;;;17.10;78.73
77153;BME280;66124;51.146;17.072;2023-07-20T05:04:14;99631.16;;;17.15;78.69
77153;BME280;66124;51.146;17.072;2023-07-20T05:06:44;99634.67;;;17.20;78.46
77153;BME280;66124;51.146;17.072;2023-07-20T05:09:13;99643.69;;;17.26;78.51
77153;BME280;66124;51.146;17.072;2023-07-20T05:11:42;99646.10;;;17.28;78.40
77153;BME280;66124;51.146;17.072;2023-07-20T05:14:12;99646.05;;;17.32;78.43
77153;BME280;66124;51.146;17.072;2023-07-20T05:16:41;99652.09;;;17.35;78.24
77153;BME280;66124;51.146;17.072;2023-07-20T05:19:10;99654.52;;;17.37;78.04
77153;BME280;66124;51.146;17.072;2023-07-20T05:21:40;99654.29;;;17.39;78.01
77153;BME280;66124;51.146;17.072;2023-07-20T05:24:08;99659.76;;;17.46;78.09
77153;BME280;66124;51.146;17.072;2023-07-20T05:26:36;99662.81;;;17.54;78.19
77153;BME280;66124;51.146;17.072;2023-07-20T05:39:47;99677.26;;;17.94;77.32
77153;BME280;66124;51.146;17.072;2023-07-20T05:42:16;99675.11;;;17.93;77.31
77153;BME280;66124;51.146;17.072;2023-07-20T05:44:46;99671.73;;;17.92;77.17
77153;BME280;66124;51.146;17.072;2023-07-20T05:47:15;99675.25;;;17.92;77.07
77153;BME280;66124;51.146;17.072;2023-07-20T05:49:44;99676.63;;;17.91;77.04
77153;BME280;66124;51.146;17.072;2023-07-20T05:52:14;99679.86;;;17.90;77.24
77153;BME280;66124;51.146;17.072;2023-07-20T05:54:44;99677.92;;;17.86;77.06
77153;BME280;66124;51.146;17.072;2023-07-20T05:57:13;99662.88;;;17.75;77.02
77153;BME280;66124;51.146;17.072;2023-07-20T05:59:42;99672.70;;;17.83;77.04
77153;BME280;66124;51.146;17.072;2023-07-20T06:02:12;99670.17;;;17.82;77.20
77153;BME280;66124;51.146;17.072;2023-07-20T06:04:41;99668.73;;;17.82;77.22
77153;BME280;66124;51.146;17.072;2023-07-20T06:07:11;99672.35;;;17.85;77.07
77153;BME280;66124;51.146;17.072;2023-07-20T06:09:40;99673.99;;;17.87;76.91
77153;BME280;66124;51.146;17.072;2023-07-20T06:12:11;99674.95;;;17.92;76.95
77153;BME280;66124;51.146;17.072;2023-07-20T06:14:40;99679.57;;;18.00;76.96
77153;BME280;66124;51.146;17.072;2023-07-20T06:17:09;99686.16;;;18.08;76.75
77153;BME280;66124;51.146;17.072;2023-07-20T06:19:39;99686.14;;;18.13;76.50
77153;BME280;66124;51.146;17.072;2023-07-20T06:22:08;99691.29;;;18.18;76.20
77153;BME280;66124;51.146;17.072;2023-07-20T06:24:37;99689.02;;;18.23;76.01
77153;BME280;66124;51.146;17.072;2023-07-20T06:27:07;99692.75;;;18.33;76.04
77153;BME280;66124;51.146;17.072;2023-07-20T06:29:37;99692.19;;;18.43;75.70
77153;BME280;66124;51.146;17.072;2023-07-20T06:32:08;99698.02;;;18.52;75.50
77153;BME280;66124;51.146;17.072;2023-07-20T06:34:37;99702.93;;;18.59;75.39
77153;BME280;66124;51.146;17.072;2023-07-20T06:37:07;99699.86;;;18.61;74.96
77153;BME280;66124;51.146;17.072;2023-07-20T06:39:36;99702.61;;;18.62;74.95
77153;BME280;66124;51.146;17.072;2023-07-20T06:42:07;99709.88;;;18.66;74.77
77153;BME280;66124;51.146;17.072;2023-07-20T06:44:36;99711.39;;;18.70;74.75
77153;BME280;66124;51.146;17.072;2023-07-20T06:47:06;99712.31;;;18.75;74.48
77153;BME280;66124;51.146;17.072;2023-07-20T06:49:35;99712.07;;;18.80;74.25
77153;BME280;66124;51.146;17.072;2023-07-20T06:52:04;99712.11;;;18.86;73.97
77153;BME280;66124;51.146;17.072;2023-07-20T07:02:21;99714.38;;;19.12;73.34
77153;BME280;66124;51.146;17.072;2023-07-20T07:04:50;99718.71;;;19.19;73.15
77153;BME280;66124;51.146;17.072;2023-07-20T07:07:20;99715.59;;;19.31;72.98
77153;BME280;66124;51.146;17.072;2023-07-20T07:09:49;99721.14;;;19.42;73.01
77153;BME280;66124;51.146;17.072;2023-07-20T07:12:18;99722.02;;;19.55;72.93
77153;BME280;66124;51.146;17.072;2023-07-20T07:14:50;99718.12;;;19.64;72.29
77153;BME280;66124;51.146;17.072;2023-07-20T07:17:19;99719.15;;;19.71;71.87
77153;BME280;66124;51.146;17.072;2023-07-20T07:19:49;99715.71;;;19.79;71.70
77153;BME280;66124;51.146;17.072;2023-07-20T07:22:18;99717.54;;;19.90;71.38
77153;BME280;66124;51.146;17.072;2023-07-20T07:24:47;99721.38;;;20.04;70.92
77153;BME280;66124;51.146;17.072;2023-07-20T07:27:17;99714.36;;;20.10;70.40
77153;BME280;66124;51.146;17.072;2023-07-20T07:29:46;99725.47;;;20.18;69.63
77153;BME280;66124;51.146;17.072;2023-07-20T07:32:16;99723.64;;;20.16;69.59
77153;BME280;66124;51.146;17.072;2023-07-20T07:34:46;99723.98;;;20.13;69.38
77153;BME280;66124;51.146;17.072;2023-07-20T07:37:15;99729.75;;;20.06;69.08
77153;BME280;66124;51.146;17.072;2023-07-20T07:39:45;99727.20;;;19.96;68.67
77153;BME280;66124;51.146;17.072;2023-07-20T07:42:14;99728.92;;;19.84;68.75
77153;BME280;66124;51.146;17.072;2023-07-20T07:44:43;99729.92;;;19.76;68.97
77153;BME280;66124;51.146;17.072;2023-07-20T07:47:13;99733.91;;;19.75;69.00
77153;BME280;66124;51.146;17.072;2023-07-20T07:49:42;99735.40;;;19.78;69.06
77153;BME280;66124;51.146;17.072;2023-07-20T07:52:11;99736.37;;;19.80;68.84
77153;BME280;66124;51.146;17.072;2023-07-20T07:54:41;99734.42;;;19.82;68.72
77153;BME280;66124;51.146;17.072;2023-07-20T07:57:11;99733.87;;;19.90;68.61
77153;BME280;66124;51.146;17.072;2023-07-20T07:59:40;99719.63;;;19.84;68.37
77153;BME280;66124;51.146;17.072;2023-07-20T08:02:10;99733.00;;;19.93;68.07
77153;BME280;66124;51.146;17.072;2023-07-20T08:04:39;99733.55;;;19.90;67.66
77153;BME280;66124;51.146;17.072;2023-07-20T08:07:08;99733.17;;;19.85;67.69
77153;BME280;66124;51.146;17.072;2023-07-20T08:09:38;99739.37;;;19.84;67.78
77153;BME280;66124;51.146;17.072;2023-07-20T08:12:09;99737.85;;;19.81;67.70
77153;BME280;66124;51.146;17.072;2023-07-20T08:14:36;99741.17;;;19.73;67.65
77153;BME280;66124;51.146;17.072;2023-07-20T08:20:14;99740.40;;;19.70;67.99
77153;BME280;66124;51.146;17.072;2023-07-20T08:22:44;99720.58;;;19.64;67.72
77153;BME280;66124;51.146;17.072;2023-07-20T08:25:13;99740.25;;;19.81;67.56
77153;BME280;66124;51.146;17.072;2023-07-20T08:27:43;99738.88;;;19.94;67.50
77153;BME280;66124;51.146;17.072;2023-07-20T08:30:13;99733.46;;;20.13;67.08
77153;BME280;66124;51.146;17.072;2023-07-20T08:32:42;99732.78;;;20.35;66.31
77153;BME280;66124;51.146;17.072;2023-07-20T08:35:12;99733.50;;;20.51;65.51
77153;BME280;66124;51.146;17.072;2023-07-20T08:37:41;99738.05;;;20.63;64.51
77153;BME280;66124;51.146;17.072;2023-07-20T08:40:12;99734.79;;;20.71;64.30
77153;BME280;66124;51.146;17.072;2023-07-20T08:42:43;99726.94;;;20.81;63.73
77153;BME280;66124;51.146;17.072;2023-07-20T08:45:14;99728.11;;;20.88;63.15
77153;BME280;66124;51.146;17.072;2023-07-20T08:47:46;99730.01;;;20.92;63.10
77153;BME280;66124;51.146;17.072;2023-07-20T08:50:17;99730.99;;;20.96;62.98
77153;BME280;66124;51.146;17.072;2023-07-20T08:52:48;99734.27;;;20.98;62.64
77153;BME280;66124;51.146;17.072;2023-07-20T08:55:17;99735.08;;;20.97;62.55
77153;BME280;66124;51.146;17.072;2023-07-20T08:57:48;99739.98;;;21.01;62.60
77153;BME280;66124;51.146;17.072;2023-07-20T09:00:17;99742.80;;;21.10;61.91
77153;BME280;66124;51.146;17.072;2023-07-20T09:02:49;99739.68;;;21.18;61.55
77153;BME280;66124;51.146;17.072;2023-07-20T09:05:22;99729.79;;;21.25;60.31
77153;BME280;66124;51.146;17.072;2023-07-20T09:07:52;99734.09;;;21.37;59.70
77153;BME280;66124;51.146;17.072;2023-07-20T09:10:23;99740.11;;;21.41;59.20
77153;BME280;66124;51.146;17.072;2023-07-20T09:12:53;99739.79;;;21.39;59.64
77153;BME280;66124;51.146;17.072;2023-07-20T09:15:23;99741.46;;;21.29;59.39
77153;BME280;66124;51.146;17.072;2023-07-20T09:17:53;99746.85;;;21.15;59.19
77153;BME280;66124;51.146;17.072;2023-07-20T09:20:22;99743.17;;;20.98;59.04
77153;BME280;66124;51.146;17.072;2023-07-20T09:22:52;99741.08;;;20.80;59.35
77153;BME280;66124;51.146;17.072;2023-07-20T09:25:22;99747.27;;;20.77;59.67
77153;BME280;66124;51.146;17.072;2023-07-20T09:27:52;99747.83;;;20.73;59.80
77153;BME280;66124;51.146;17.072;2023-07-20T09:30:25;99744.88;;;20.75;59.73
77153;BME280;66124;51.146;17.072;2023-07-20T09:32:55;99741.45;;;20.79;59.75
77153;BME280;66124;51.146;17.072;2023-07-20T09:40:50;99733.23;;;21.27;58.92
77153;BME280;66124;51.146;17.072;2023-07-20T09:43:18;99739.10;;;21.42;58.40
77153;BME280;66124;51.146;17.072;2023-07-20T09:45:46;99736.77;;;21.50;57.91
77153;BME280;66124;51.146;17.072;2023-07-20T09:48:13;99735.71;;;21.52;57.17
77153;BME280;66124;51.146;17.072;2023-07-20T09:50:42;99738.91;;;21.48;56.34
77153;BME280;66124;51.146;17.072;2023-07-20T09:53:12;99736.96;;;21.43;54.95
77153;BME280;66124;51.146;17.072;2023-07-20T09:55:40;99734.65;;;21.43;54.69
77153;BME280;66124;51.146;17.072;2023-07-20T09:58:07;99734.89;;;21.48;54.28
77153;BME280;66124;51.146;17.072;2023-07-20T10:00:36;99730.45;;;21.52;53.77
77153;BME280;66124;51.146;17.072;2023-07-20T10:03:04;99730.77;;;21.53;54.02
77153;BME280;66124;51.146;17.072;2023-07-20T10:05:32;99726.93;;;21.58;54.22
77153;BME280;66124;51.146;17.072;2023-07-20T10:15:23;99723.52;;;21.97;53.62
77153;BME280;66124;51.146;17.072;2023-07-20T10:17:59;99716.99;;;22.06;53.22
77153;BME280;66124;51.146;17.072;2023-07-20T10:20:33;99720.14;;;22.19;52.35
77153;BME280;66124;51.146;17.072;2023-07-20T10:23:05;99713.20;;;22.24;52.11
77153;BME280;66124;51.146;17.072;2023-07-20T10:25:36;99713.59;;;22.30;52.00
77153;BME280;66124;51.146;17.072;2023-07-20T10:28:07;99718.15;;;22.33;50.90
77153;BME280;66124;51.146;17.072;2023-07-20T10:30:37;99714.77;;;22.31;50.32
77153;BME280;66124;51.146;17.072;2023-07-20T10:33:06;99712.30;;;22.28;50.44
77153;BME280;66124;51.146;17.072;2023-07-20T10:35:52;99706.39;;;22.27;50.65
77153;BME280;66124;51.146;17.072;2023-07-20T10:38:35;99700.90;;;22.36;50.10
77153;BME280;66124;51.146;17.072;2023-07-20T10:41:17;99702.51;;;22.49;50.03
77153;BME280;66124;51.146;17.072;2023-07-20T10:43:47;99706.13;;;22.63;49.75
77153;BME280;66124;51.146;17.072;2023-07-20T10:46:34;99697.26;;;22.71;49.70
77153;BME280;66124;51.146;17.072;2023-07-20T10:49:05;99711.06;;;22.75;49.09
77153;BME280;66124;51.146;17.072;2023-07-20T10:51:41;99702.58;;;22.71;49.13
77153;BME280;66124;51.146;17.072;2023-07-20T10:54:35;99702.88;;;22.86;47.94
77153;BME280;66124;51.146;17.072;2023-07-20T10:57:29;99694.02;;;23.01;47.42
77153;BME280;66124;51.146;17.072;2023-07-20T11:00:11;99688.71;;;23.15;47.49
77153;BME280;66124;51.146;17.072;2023-07-20T11:02:48;99695.54;;;23.32;46.77
77153;BME280;66124;51.146;17.072;2023-07-20T11:05:36;99694.23;;;23.43;46.68
77153;BME280;66124;51.146;17.072;2023-07-20T11:08:09;99689.54;;;23.66;46.36
77153;BME280;66124;51.146;17.072;2023-07-20T11:10:39;99690.42;;;23.89;45.91
77153;BME280;66124;51.146;17.072;2023-07-20T11:13:23;99684.34;;;24.13;45.63
77153;BME280;66124;51.146;17.072;2023-07-20T11:16:05;99676.84;;;24.43;44.88
77153;BME280;66124;51.146;17.072;2023-07-20T11:18:38;99673.14;;;24.63;43.41
77153;BME280;66124;51.146;17.072;2023-07-20T11:21:10;99682.89;;;24.82;43.51
77153;BME280;66124;51.146;17.072;2023-07-20T11:23:40;99692.64;;;24.95;43.07
77153;BME280;66124;51.146;17.072;2023-07-20T11:26:08;99711.08;;;24.74;44.93
77153;BME280;66124;51.146;17.072;2023-07-20T11:36:26;99751.77;;;20.18;55.60
77153;BME280;66124;51.146;17.072;2023-07-20T11:38:56;99733.85;;;19.39;58.17
77153;BME280;66124;51.146;17.072;2023-07-20T11:41:26;99730.56;;;18.96;60.22
77153;BME280;66124;51.146;17.072;2023-07-20T11:43:56;99728.98;;;18.70;62.01
77153;BME280;66124;51.146;17.072;2023-07-20T11:46:26;99729.55;;;18.53;63.44
77153;BME280;66124;51.146;17.072;2023-07-20T11:49:00;99729.80;;;18.44;64.87
77153;BME280;66124;51.146;17.072;2023-07-20T11:51:31;99735.24;;;18.41;65.93
77153;BME280;66124;51.146;17.072;2023-07-20T11:54:02;99738.30;;;18.42;66.82
77153;BME280;66124;51.146;17.072;2023-07-20T11:56:32;99743.42;;;18.47;67.53
77153;BME280;66124;51.146;17.072;2023-07-20T11:59:02;99753.60;;;18.54;68.13
77153;BME280;66124;51.146;17.072;2023-07-20T12:01:31;99752.13;;;18.62;68.59
77153;BME280;66124;51.146;17.072;2023-07-20T12:04:02;99754.47;;;18.72;68.68
77153;BME280;66124;51.146;17.072;2023-07-20T12:06:32;99761.42;;;18.93;69.12
77153;BME280;66124;51.146;17.072;2023-07-20T12:09:01;99760.98;;;19.13;69.20
77153;BME280;66124;51.146;17.072;2023-07-20T12:11:38;99761.19;;;19.28;68.85
77153;BME280;66124;51.146;17.072;2023-07-20T12:14:09;99768.38;;;19.40;68.68
77153;BME280;66124;51.146;17.072;2023-07-20T12:16:39;99763.55;;;19.48;68.67
77153;BME280;66124;51.146;17.072;2023-07-20T12:19:10;99758.61;;;19.60;68.62
77153;BME280;66124;51.146;17.072;2023-07-20T12:21:41;99761.62;;;19.74;68.23
77153;BME280;66124;51.146;17.072;2023-07-20T12:24:11;99761.40;;;19.87;67.73
77153;BME280;66124;51.146;17.072;2023-07-20T12:26:41;99755.88;;;20.05;67.19
77153;BME280;66124;51.146;17.072;2023-07-20T12:29:10;99754.54;;;20.36;66.44
77153;BME280;66124;51.146;17.072;2023-07-20T12:31:39;99756.92;;;20.64;66.24
77153;BME280;66124;51.146;17.072;2023-07-20T12:34:09;99756.33;;;20.93;65.00
77153;BME280;66124;51.146;17.072;2023-07-20T12:36:38;99740.91;;;21.10;63.47
77153;BME280;66124;51.146;17.072;2023-07-20T12:39:07;99740.73;;;21.33;62.67
77153;BME280;66124;51.146;17.072;2023-07-20T12:41:37;99737.66;;;21.71;61.69
77153;BME280;66124;51.146;17.072;2023-07-20T12:44:06;99737.07;;;22.01;61.13
77153;BME280;66124;51.146;17.072;2023-07-20T12:46:34;99743.45;;;22.21;60.10
77153;BME280;66124;51.146;17.072;2023-07-20T12:49:02;99744.00;;;22.41;59.91
77153;BME280;66124;51.146;17.072;2023-07-20T13:00:11;99742.19;;;22.83;56.61
77153;BME280;66124;51.146;17.072;2023-07-20T13:02:41;99743.66;;;22.62;56.50
77153;BME280;66124;51.146;17.072;2023-07-20T13:05:11;99739.88;;;22.78;56.56
77153;BME280;66124;51.146;17.072;2023-07-20T13:07:40;99735.16;;;23.06;55.15
77153;BME280;66124;51.146;17.072;2023-07-20T13:10:11;99733.17;;;23.26;54.27
77153;BME280;66124;51.146;17.072;2023-07-20T13:12:41;99740.66;;;23.59;53.18
77153;BME280;66124;51.146;17.072;2023-07-20T13:15:11;99739.17;;;24.01;52.00
77153;BME280;66124;51.146;17.072;2023-07-20T13:17:41;99739.21;;;24.36;51.03
77153;BME280;66124;51.146;17.072;2023-07-20T13:20:11;99737.11;;;24.76;49.53
77153;BME280;66124;51.146;17.072;2023-07-20T13:22:41;99733.30;;;24.92;49.54
77153;BME280;66124;51.146;17.072;2023-07-20T13:25:11;99733.77;;;25.03;49.16
77153;BME280;66124;51.146;17.072;2023-07-20T13:27:40;99735.58;;;25.18;48.50
77153;BME280;66124;51.146;17.072;2023-07-20T13:30:12;99738.13;;;25.39;48.01
77153;BME280;66124;51.146;17.072;2023-07-20T13:32:41;99736.35;;;25.59;47.96
77153;BME280;66124;51.146;17.072;2023-07-20T13:35:11;99734.67;;;25.91;47.80
77153;BME280;66124;51.146;17.072;2023-07-20T13:37:40;99735.11;;;26.36;46.53
77153;BME280;66124;51.146;17.072;2023-07-20T13:40:11;99731.13;;;26.65;45.61
77153;BME280;66124;51.146;17.072;2023-07-20T13:42:40;99729.45;;;27.06;45.08
77153;BME280;66124;51.146;17.072;2023-07-20T13:45:11;99729.38;;;27.62;43.97
77153;BME280;66124;51.146;17.072;2023-07-20T13:47:40;99726.53;;;27.90;42.55
77153;BME280;66124;51.146;17.072;2023-07-20T13:50:10;99717.27;;;27.92;41.57
77153;BME280;66124;51.146;17.072;2023-07-20T13:52:39;99721.17;;;27.94;41.21
77153;BME280;66124;51.146;17.072;2023-07-20T13:55:10;99719.83;;;27.87;39.51
77153;BME280;66124;51.146;17.072;2023-07-20T13:57:39;99717.00;;;27.87;38.85
77153;BME280;66124;51.146;17.072;2023-07-20T14:00:11;99712.05;;;27.89;38.98
77153;BME280;66124;51.146;17.072;2023-07-20T14:02:40;99718.00;;;28.13;38.89
77153;BME280;66124;51.146;17.072;2023-07-20T14:05:10;99709.91;;;28.40;38.51
77153;BME280;66124;51.146;17.072;2023-07-20T14:07:40;99712.86;;;28.79;38.58
77153;BME280;66124;51.146;17.072;2023-07-20T14:10:08;99709.48;;;29.32;38.18
77153;BME280;66124;51.146;17.072;2023-07-20T14:12:35;99708.45;;;29.43;36.52
77153;BME280;66124;51.146;17.072;2023-07-20T14:18:06;99714.97;;;28.83;36.42
77153;BME280;66124;51.146;17.072;2023-07-20T14:20:33;99712.24;;;28.89;36.47